Airfield :
LOGIN :

Register | Disclaimer

   EN    FR    IT 

 










Legend :    VFR   Marginal VFR   IFR   Intensive IFR   Very Intensive IFR
Visi :
Ceiling :
>= 8 km
>= 3000ft
5 to 8 km
1000 to 3000 ft
1500m to 5 km
500 to 1000 ft
800 to 1500m
200 to 500 ft
< 800m
< 200 ft
Symbols :   Thunderstorms  Fog  Heavy snow  Heavy precipitations  Wind > 20 kt
SIGMETs :     Misc.  Thunderstorms  Icing  Turbulence  Mountain Waves  Volcanic Ashes







- Airport Elevation : 3368 ft


LSGC - Les Eplatures

CURRENT METAR :
  • 281250Z 22009KT 180V270 9999 SCT024 18/12 Q1020

EXPIRED METARs :
  • 281220Z 23011KT 170V280 9999 SCT021 16/11 Q1020
  • 281150Z 24010KT 170V280 9999 BKN018 15/11 Q1020
  • 281120Z VRB07KT 9999 BKN028 15/11 Q1020
  • 281050Z 24009KT 210V270 9999 BKN016 BKN030 15/12 Q1020
  • 281020Z 23009KT 200V270 9999 SCT015 15/11 Q1020

TAF TAF LSGC
Valid from the 28 at 09:00 until the 28 at 18:00 UTC


280825Z 2809/2818 25010KT 9999 FEW030 SCT130
BECMG 2816/2818 VRB03KT
No reported NOTAMs for that airfield.



MET'MAP, your aeronautical weather chart ! - Copyright ORBIFLY December 2007 - Disclaimer

ORBIFLY MET'MAP TEAM :

Programming & Development : Alexandra Zaïnal
Concept & Development : Baudouin d'Aumeries
Co-Development & Prog : Marc-Olivier Méhu
Technical & hardware support : Manuel Goepfert

Contact : metmap@orbifly.com




SOURCES & CREDITS :

   NOAA